createdAt,value
2022-08-16T00:02:12.936Z,100089.66
2022-08-16T00:04:53.480Z,100091.88
2022-08-16T00:07:34.109Z,100082.97
2022-08-16T00:10:20.967Z,100080.84
2022-08-16T00:13:07.872Z,100085.41
2022-08-16T00:15:51.353Z,100080.59
2022-08-16T00:18:32.890Z,100080.13
2022-08-16T00:21:14.324Z,100078.59
2022-08-16T00:23:53.760Z,100077.78
2022-08-16T00:26:38.783Z,100075.09
2022-08-16T00:29:24.851Z,100074.03
2022-08-16T00:32:11.031Z,100071.31
2022-08-16T00:34:52.865Z,100070.06
2022-08-16T00:37:58.612Z,100069.00
2022-08-16T00:40:43.616Z,100071.72
2022-08-16T00:43:43.228Z,100075.69
2022-08-16T00:46:33.904Z,100080.03
2022-08-16T00:49:17.570Z,100080.25
2022-08-16T00:52:01.810Z,100084.81
2022-08-16T00:54:41.348Z,100079.00
2022-08-16T00:57:24.015Z,100081.53
2022-08-16T01:00:06.592Z,100086.59
2022-08-16T01:02:49.071Z,100087.41
2022-08-16T01:05:28.011Z,100089.75
2022-08-16T01:08:35.035Z,100092.47
2022-08-16T01:11:14.356Z,100094.00
2022-08-16T01:13:59.495Z,100099.63
2022-08-16T01:16:52.785Z,100098.22
2022-08-16T01:19:35.876Z,100098.78
2022-08-16T01:22:47.487Z,100091.97
2022-08-16T01:25:36.345Z,100093.63
2022-08-16T01:28:20.226Z,100095.53
2022-08-16T01:31:00.615Z,100101.22
2022-08-16T01:33:44.606Z,100103.81
2022-08-16T01:36:26.684Z,100110.41
2022-08-16T01:39:14.653Z,100112.53
2022-08-16T01:41:55.344Z,100117.09
2022-08-16T01:44:37.777Z,100117.09
2022-08-16T01:47:18.521Z,100118.41
2022-08-16T01:50:41.867Z,100126.25
2022-08-16T01:52:58.553Z,100124.59
2022-08-16T01:55:53.797Z,100120.50
2022-08-16T01:58:34.280Z,100124.84
2022-08-16T02:01:18.867Z,100125.91
2022-08-16T02:04:11.177Z,100120.94
2022-08-16T02:06:54.538Z,100125.75
2022-08-16T02:09:35.107Z,100126.44
2022-08-16T02:12:45.863Z,100136.41
2022-08-16T02:15:25.546Z,100129.00
2022-08-16T02:18:07.415Z,100133.22
2022-08-16T02:20:53.524Z,100129.06
2022-08-16T02:23:35.759Z,100140.69
2022-08-16T02:26:35.452Z,100137.63
2022-08-16T02:29:14.079Z,100143.25
2022-08-16T02:32:03.717Z,100151.94
2022-08-16T02:34:56.951Z,100154.03
2022-08-16T02:37:51.721Z,100151.09
2022-08-16T02:40:35.817Z,100154.38
2022-08-16T02:43:16.572Z,100151.09
2022-08-16T02:45:55.132Z,100151.78
2022-08-16T02:48:34.885Z,100156.13
2022-08-16T02:51:29.959Z,100148.50
2022-08-16T02:54:13.693Z,100146.03
2022-08-16T02:56:57.451Z,100146.50
2022-08-16T02:59:39.849Z,100137.28
2022-08-16T03:02:32.073Z,100136.00
2022-08-16T03:05:15.487Z,100136.00
2022-08-16T03:07:55.336Z,100142.66
2022-08-16T03:10:34.304Z,100129.63
2022-08-16T03:13:17.400Z,100127.78
2022-08-16T03:16:00.043Z,100125.75
2022-08-16T03:18:40.215Z,100134.50
2022-08-16T03:21:24.004Z,100127.69
2022-08-16T03:24:04.245Z,100129.19
2022-08-16T03:26:42.603Z,100126.13
2022-08-16T03:29:23.367Z,100118.91
2022-08-16T03:32:07.288Z,100126.47
2022-08-16T03:34:49.826Z,100136.41
2022-08-16T03:37:30.979Z,100133.13
2022-08-16T03:40:51.251Z,100130.66
2022-08-16T03:43:51.380Z,100126.47
2022-08-16T03:46:44.880Z,100130.56
2022-08-16T03:49:37.197Z,100132.00
2022-08-16T03:52:20.107Z,100130.13
2022-08-16T03:55:00.917Z,100131.63
2022-08-16T03:57:42.320Z,100137.00
2022-08-16T04:00:40.328Z,100136.88
2022-08-16T04:03:24.819Z,100129.47
2022-08-16T04:06:07.571Z,100141.81
2022-08-16T04:08:50.530Z,100144.28
2022-08-16T04:11:36.949Z,100153.78
2022-08-16T04:14:33.422Z,100153.19
2022-08-16T04:17:16.322Z,100152.13
2022-08-16T04:20:00.629Z,100144.22
2022-08-16T04:22:43.615Z,100148.97
2022-08-16T04:25:24.516Z,100145.59
2022-08-16T04:28:51.710Z,100155.81
2022-08-16T04:31:10.593Z,100151.56
2022-08-16T04:33:59.223Z,100149.84
2022-08-16T04:36:38.737Z,100160.19
2022-08-16T04:39:23.840Z,100160.13
2022-08-16T04:42:11.267Z,100162.94
2022-08-16T04:44:53.867Z,100160.63
2022-08-16T04:47:37.905Z,100165.13
2022-08-16T04:50:30.322Z,100168.34
2022-08-16T04:53:15.685Z,100168.47
2022-08-16T04:55:57.449Z,100167.00
2022-08-16T04:58:45.738Z,100163.84
2022-08-16T05:01:58.208Z,100163.38
2022-08-16T05:04:34.174Z,100167.59
2022-08-16T05:07:21.724Z,100169.75
2022-08-16T05:10:19.918Z,100168.88
2022-08-16T05:13:03.640Z,100171.34
2022-08-16T05:15:43.277Z,100178.38
2022-08-16T05:18:27.520Z,100181.66
2022-08-16T05:21:11.363Z,100187.78
2022-08-16T05:24:00.172Z,100194.81
2022-08-16T05:26:49.600Z,100188.25
2022-08-16T05:30:00.678Z,100187.78
2022-08-16T05:32:53.665Z,100190.19
2022-08-16T05:35:36.550Z,100189.88
2022-08-16T05:38:33.039Z,100197.44
2022-08-16T05:41:22.038Z,100213.53
2022-08-16T05:44:05.315Z,100213.44
2022-08-16T05:47:02.848Z,100209.63
2022-08-16T05:49:44.300Z,100218.81
2022-08-16T05:52:30.428Z,100216.81
2022-08-16T05:55:12.520Z,100212.97
2022-08-16T05:57:53.240Z,100212.41
2022-08-16T06:00:34.888Z,100224.50
2022-08-16T06:03:14.451Z,100219.63
2022-08-16T06:06:28.095Z,100219.41
2022-08-16T06:09:09.397Z,100219.53
2022-08-16T06:11:51.245Z,100220.81
2022-08-16T06:14:32.257Z,100222.56
2022-08-16T06:17:11.870Z,100221.97
2022-08-16T06:19:54.862Z,100230.31
2022-08-16T06:22:38.895Z,100233.47
2022-08-16T06:25:18.368Z,100229.16
2022-08-16T06:28:36.476Z,100236.31
2022-08-16T06:31:24.924Z,100235.22
2022-08-16T06:34:56.192Z,100234.59
2022-08-16T06:37:24.296Z,100236.13
2022-08-16T06:40:21.410Z,100247.81
2022-08-16T06:43:13.915Z,100256.03
2022-08-16T06:46:00.707Z,100255.31
2022-08-16T06:48:48.350Z,100252.22
2022-08-16T06:51:45.884Z,100251.34
2022-08-16T06:54:34.210Z,100257.84
2022-08-16T06:57:16.765Z,100266.75
2022-08-16T06:59:59.473Z,100271.44
2022-08-16T07:02:54.275Z,100266.53
2022-08-16T07:05:41.344Z,100260.75
2022-08-16T07:08:29.688Z,100268.16
2022-08-16T07:11:12.002Z,100270.56
2022-08-16T07:14:00.727Z,100268.63
2022-08-16T07:17:03.189Z,100270.47
2022-08-16T07:20:02.686Z,100269.13
2022-08-16T07:22:59.186Z,100268.97
2022-08-16T07:25:52.842Z,100273.91
2022-08-16T07:28:32.669Z,100277.63
2022-08-16T07:31:14.332Z,100272.91
2022-08-16T07:33:58.888Z,100283.19
2022-08-16T07:36:42.088Z,100284.72
2022-08-16T07:39:28.405Z,100282.28
2022-08-16T07:42:25.791Z,100291.31
2022-08-16T07:45:10.126Z,100297.53
2022-08-16T07:47:54.452Z,100291.66
2022-08-16T07:50:56.661Z,100291.84
2022-08-16T07:53:43.898Z,100293.06
2022-08-16T07:56:33.877Z,100281.97
2022-08-16T07:59:15.201Z,100303.44
2022-08-16T08:01:56.415Z,100302.44
2022-08-16T08:04:39.591Z,100307.91
2022-08-16T08:07:33.472Z,100305.72
2022-08-16T08:10:29.523Z,100303.53
2022-08-16T08:13:10.125Z,100306.22
2022-08-16T08:15:53.505Z,100298.47
2022-08-16T08:18:34.405Z,100297.88
2022-08-16T08:21:19.299Z,100301.66
2022-08-16T08:24:09.381Z,100303.69
2022-08-16T08:26:51.457Z,100312.03
2022-08-16T08:29:46.314Z,100308.75
2022-08-16T08:33:28.261Z,100312.38
2022-08-16T08:36:11.432Z,100313.03
2022-08-16T08:39:03.897Z,100320.34
2022-08-16T08:41:55.147Z,100319.84
2022-08-16T08:44:35.525Z,100323.63
2022-08-16T08:47:17.743Z,100328.91
2022-08-16T08:49:58.920Z,100327.84
2022-08-16T08:52:40.743Z,100331.50
2022-08-16T08:55:37.531Z,100329.25
2022-08-16T08:58:19.080Z,100331.47
2022-08-16T09:01:13.340Z,100339.09
2022-08-16T09:04:17.674Z,100329.72
2022-08-16T09:07:04.761Z,100338.88
2022-08-16T09:09:46.355Z,100336.28
2022-08-16T09:12:31.235Z,100338.50
2022-08-16T09:15:24.023Z,100332.56
2022-08-16T09:18:24.800Z,100332.78
2022-08-16T09:21:09.339Z,100333.19
2022-08-16T09:23:50.239Z,100344.16
2022-08-16T09:26:45.562Z,100330.97
2022-08-16T09:29:44.772Z,100341.03
2022-08-16T09:32:30.710Z,100338.75
2022-08-16T09:35:11.451Z,100332.03
2022-08-16T09:38:00.795Z,100337.34
2022-08-16T09:40:43.213Z,100324.66
2022-08-16T09:43:53.497Z,100339.13
2022-08-16T09:46:44.560Z,100328.44
2022-08-16T09:49:36.922Z,100324.44
2022-08-16T09:52:46.836Z,100320.56
2022-08-16T09:55:31.297Z,100323.88
2022-08-16T09:58:40.582Z,100318.91
2022-08-16T10:01:16.591Z,100324.13
2022-08-16T10:04:31.648Z,100328.03
2022-08-16T10:07:15.177Z,100326.41
2022-08-16T10:09:56.507Z,100326.47
2022-08-16T10:12:56.912Z,100335.00
2022-08-16T10:15:54.813Z,100330.59
2022-08-16T10:19:00.988Z,100332.16
2022-08-16T10:21:35.467Z,100341.66
2022-08-16T10:24:13.867Z,100338.06
2022-08-16T10:27:26.567Z,100340.31
2022-08-16T10:30:30.236Z,100339.03
2022-08-16T10:33:11.062Z,100330.38
2022-08-16T10:35:53.911Z,100335.31
2022-08-16T10:38:48.362Z,100336.78
2022-08-16T10:41:37.879Z,100330.06
2022-08-16T10:44:18.051Z,100331.13
2022-08-16T10:47:12.859Z,100333.00
2022-08-16T10:49:57.644Z,100331.06
2022-08-16T10:55:40.952Z,100326.53
2022-08-16T10:58:22.444Z,100331.66
2022-08-16T11:01:43.085Z,100332.53
2022-08-16T11:10:21.153Z,100343.09
2022-08-16T11:16:01.175Z,100337.88
2022-08-16T11:18:49.025Z,100338.69
2022-08-16T11:25:12.714Z,100342.72
2022-08-16T11:27:56.241Z,100340.91
2022-08-16T11:30:39.310Z,100342.94
2022-08-16T11:33:52.007Z,100348.47
2022-08-16T11:36:25.156Z,100354.16
2022-08-16T11:39:10.219Z,100354.47
2022-08-16T11:41:51.565Z,100345.72
2022-08-16T11:44:43.739Z,100349.97
2022-08-16T11:47:35.416Z,100359.56
2022-08-16T11:50:14.254Z,100352.41
2022-08-16T11:52:54.772Z,100358.09
2022-08-16T11:55:35.470Z,100347.81
2022-08-16T11:58:18.070Z,100361.16
2022-08-16T12:00:59.751Z,100356.59
2022-08-16T12:03:43.497Z,100354.66
2022-08-16T12:06:30.845Z,100362.84
2022-08-16T12:09:14.406Z,100352.94
2022-08-16T12:11:56.772Z,100355.41
2022-08-16T12:14:37.518Z,100354.75
2022-08-16T12:17:18.803Z,100355.09
2022-08-16T12:19:57.694Z,100354.75
2022-08-16T12:22:38.847Z,100352.69
2022-08-16T12:25:22.365Z,100353.03
2022-08-16T12:28:03.512Z,100344.94
2022-08-16T12:30:45.752Z,100349.09
2022-08-16T12:33:26.348Z,100346.91
2022-08-16T12:36:12.943Z,100351.13
2022-08-16T12:39:05.590Z,100352.63
2022-08-16T12:41:48.072Z,100350.25
2022-08-16T12:44:31.339Z,100355.94
2022-08-16T12:48:09.934Z,100357.41
2022-08-16T12:50:58.063Z,100349.94
2022-08-16T12:53:42.245Z,100350.50
2022-08-16T12:56:25.223Z,100344.72
2022-08-16T12:59:11.615Z,100341.63
2022-08-16T13:01:58.185Z,100339.03
2022-08-16T13:04:38.636Z,100346.31
2022-08-16T13:07:19.151Z,100344.91
2022-08-16T13:10:21.510Z,100348.94
2022-08-16T13:13:16.787Z,100345.78
2022-08-16T13:16:02.210Z,100341.91
2022-08-16T13:18:44.740Z,100347.22
2022-08-16T13:21:33.865Z,100348.47
2022-08-16T13:24:15.255Z,100346.38
2022-08-16T13:26:56.206Z,100346.03
2022-08-16T13:29:40.088Z,100351.22
2022-08-16T13:32:39.650Z,100344.88
2022-08-16T13:35:19.774Z,100356.09
2022-08-16T13:37:59.550Z,100349.25
2022-08-16T13:40:39.364Z,100343.59
2022-08-16T13:43:22.889Z,100342.47
2022-08-16T13:46:04.974Z,100334.34
2022-08-16T13:48:46.283Z,100337.59
2022-08-16T13:51:29.204Z,100333.59
2022-08-16T13:54:11.179Z,100332.31
2022-08-16T13:56:51.076Z,100343.28
2022-08-16T13:59:30.819Z,100342.28
2022-08-16T14:02:15.217Z,100343.47
2022-08-16T14:05:02.952Z,100341.03
2022-08-16T14:07:46.176Z,100332.59
2022-08-16T14:10:32.604Z,100335.53
2022-08-16T14:13:21.104Z,100343.50
2022-08-16T14:16:01.629Z,100336.03
2022-08-16T14:18:42.428Z,100324.50
2022-08-16T14:21:27.872Z,100335.59
2022-08-16T14:24:30.234Z,100336.91
2022-08-16T14:27:12.129Z,100333.53
2022-08-16T14:29:53.400Z,100339.63
2022-08-16T14:32:36.395Z,100342.09
2022-08-16T14:35:36.791Z,100334.16
2022-08-16T14:38:24.337Z,100337.38
2022-08-16T14:41:10.365Z,100338.63
2022-08-16T14:43:50.223Z,100346.06
2022-08-16T14:46:31.974Z,100332.91
2022-08-16T14:49:12.063Z,100333.31
2022-08-16T14:51:53.674Z,100331.91
2022-08-16T14:54:34.205Z,100321.19
2022-08-16T14:57:14.737Z,100324.63
2022-08-16T14:59:55.317Z,100321.28
2022-08-16T15:02:36.897Z,100331.44
2022-08-16T15:05:16.711Z,100329.50
2022-08-16T15:07:56.610Z,100328.94
2022-08-16T15:10:38.998Z,100332.13
2022-08-16T15:13:21.400Z,100334.81
2022-08-16T15:16:04.178Z,100336.72
2022-08-16T15:18:46.610Z,100342.34
2022-08-16T15:21:27.190Z,100334.56
2022-08-16T15:24:16.760Z,100345.31
2022-08-16T15:27:04.441Z,100345.88
2022-08-16T15:29:46.660Z,100340.50
2022-08-16T15:32:34.091Z,100339.38
2022-08-16T15:35:15.517Z,100335.50
2022-08-16T15:37:58.705Z,100340.78
2022-08-16T15:40:57.741Z,100348.69
2022-08-16T15:43:40.326Z,100346.50
2022-08-16T15:46:35.521Z,100340.81
2022-08-16T15:49:34.652Z,100348.56
2022-08-16T15:52:24.944Z,100341.22
2022-08-16T15:55:24.012Z,100347.97
2022-08-16T15:58:35.201Z,100347.97
2022-08-16T16:01:18.645Z,100350.22
2022-08-16T16:03:59.863Z,100348.84
2022-08-16T16:06:40.424Z,100349.72
2022-08-16T16:09:20.493Z,100353.91
2022-08-16T16:12:50.341Z,100355.34
2022-08-16T16:15:20.112Z,100354.31
2022-08-16T16:18:09.963Z,100354.63
2022-08-16T16:20:55.372Z,100349.00
2022-08-16T16:23:41.085Z,100349.28
2022-08-16T16:26:24.845Z,100348.56
2022-08-16T16:29:14.604Z,100346.09
2022-08-16T16:31:59.404Z,100346.16
2022-08-16T16:34:43.094Z,100352.53
2022-08-16T16:37:22.181Z,100358.56
2022-08-16T16:40:23.812Z,100363.81
2022-08-16T16:43:16.701Z,100356.13
2022-08-16T16:45:56.793Z,100353.44
2022-08-16T16:48:36.529Z,100355.94
2022-08-16T16:51:16.676Z,100363.84
2022-08-16T16:54:02.307Z,100358.94
2022-08-16T16:56:54.804Z,100359.22
2022-08-16T16:59:35.549Z,100357.63
2022-08-16T17:02:41.033Z,100354.09
2022-08-16T17:05:17.909Z,100354.38
2022-08-16T17:08:00.492Z,100360.97
2022-08-16T17:10:46.663Z,100370.56
2022-08-16T17:13:32.436Z,100359.66
2022-08-16T17:16:18.807Z,100372.28
2022-08-16T17:19:15.269Z,100370.41
2022-08-16T17:21:57.979Z,100380.25
2022-08-16T17:24:39.286Z,100374.53
2022-08-16T17:27:32.111Z,100378.69
2022-08-16T17:30:17.830Z,100384.44
2022-08-16T17:33:00.541Z,100376.22
2022-08-16T17:35:55.245Z,100378.19
2022-08-16T17:38:43.991Z,100389.69
2022-08-16T17:41:26.442Z,100393.03
2022-08-16T17:44:08.591Z,100391.09
2022-08-16T17:46:52.279Z,100396.06
2022-08-16T17:49:32.479Z,100389.78
2022-08-16T17:52:12.931Z,100389.25
2022-08-16T17:54:53.545Z,100398.53
2022-08-16T17:57:31.849Z,100400.75
2022-08-16T18:00:18.308Z,100396.91
2022-08-16T18:03:02.401Z,100411.63
2022-08-16T18:05:44.319Z,100401.00
2022-08-16T18:08:25.707Z,100404.28
2022-08-16T18:11:13.236Z,100412.16
2022-08-16T18:13:52.943Z,100403.16
2022-08-16T18:16:47.905Z,100407.75
2022-08-16T18:19:27.431Z,100402.81
2022-08-16T18:22:19.428Z,100409.06
2022-08-16T18:24:59.882Z,100407.66
2022-08-16T18:27:38.565Z,100411.44
2022-08-16T18:30:17.956Z,100410.28
2022-08-16T18:32:57.671Z,100405.84
2022-08-16T18:35:38.675Z,100408.56
2022-08-16T18:38:20.884Z,100416.09
2022-08-16T18:40:59.070Z,100418.22
2022-08-16T18:44:23.911Z,100421.66
2022-08-16T18:46:39.572Z,100421.34
2022-08-16T18:49:19.807Z,100412.00
2022-08-16T18:52:00.889Z,100426.13
2022-08-16T18:55:02.733Z,100428.75
2022-08-16T18:57:39.038Z,100427.53
2022-08-16T19:00:22.367Z,100427.47
2022-08-16T19:03:09.146Z,100436.00
2022-08-16T19:05:52.341Z,100442.13
2022-08-16T19:08:34.658Z,100446.16
2022-08-16T19:11:18.869Z,100455.59
2022-08-16T19:14:00.714Z,100450.34
2022-08-16T19:16:40.191Z,100456.25
2022-08-16T19:19:22.867Z,100446.25
2022-08-16T19:22:06.613Z,100453.41
2022-08-16T19:24:49.041Z,100458.72
2022-08-16T19:27:33.652Z,100460.47
2022-08-16T19:30:14.578Z,100456.03
2022-08-16T19:32:54.981Z,100460.25
2022-08-16T19:35:34.884Z,100472.63
2022-08-16T19:38:13.389Z,100475.22
2022-08-16T19:40:54.860Z,100482.16
2022-08-16T19:44:19.839Z,100480.88
2022-08-16T19:47:01.478Z,100489.22
2022-08-16T19:49:39.626Z,100488.19
2022-08-16T19:52:20.705Z,100499.22
2022-08-16T19:55:03.265Z,100491.25
2022-08-16T19:57:45.294Z,100498.22
2022-08-16T20:00:35.261Z,100495.91
2022-08-16T20:03:18.533Z,100489.81
2022-08-16T20:05:59.238Z,100488.63
2022-08-16T20:08:40.629Z,100486.81
2022-08-16T20:11:20.122Z,100486.19
2022-08-16T20:14:00.170Z,100483.63
2022-08-16T20:16:42.305Z,100487.31
2022-08-16T20:19:25.218Z,100492.06
2022-08-16T20:22:09.080Z,100495.47
2022-08-16T20:25:02.036Z,100488.06
2022-08-16T20:27:42.428Z,100496.34
2022-08-16T20:30:22.889Z,100496.22
2022-08-16T20:33:04.732Z,100499.41
2022-08-16T20:35:45.346Z,100501.44
2022-08-16T20:38:25.994Z,100502.97
2022-08-16T20:41:05.898Z,100503.09
2022-08-16T20:43:48.352Z,100497.78
2022-08-16T20:46:43.158Z,100509.56
2022-08-16T20:49:23.314Z,100508.34
2022-08-16T20:52:03.616Z,100516.13
2022-08-16T20:54:45.989Z,100514.16
2022-08-16T20:57:26.007Z,100517.78
2022-08-16T21:00:08.464Z,100522.03
2022-08-16T21:02:49.393Z,100518.13
2022-08-16T21:05:31.874Z,100522.63
2022-08-16T21:08:50.143Z,100522.28
2022-08-16T21:11:12.265Z,100522.94
2022-08-16T21:13:55.352Z,100529.91
2022-08-16T21:16:40.196Z,100527.91
2022-08-16T21:19:20.045Z,100528.38
2022-08-16T21:21:58.281Z,100538.81
2022-08-16T21:24:36.420Z,100539.28
2022-08-16T21:27:17.385Z,100541.84
2022-08-16T21:30:08.737Z,100547.75
2022-08-16T21:32:52.113Z,100546.91
2022-08-16T21:35:33.679Z,100544.06
2022-08-16T21:38:29.235Z,100549.09
2022-08-16T21:41:12.721Z,100544.38
2022-08-16T21:43:53.462Z,100542.94
2022-08-16T21:46:33.827Z,100543.66
2022-08-16T21:49:16.572Z,100539.28
2022-08-16T21:51:55.935Z,100541.25
2022-08-16T21:54:46.510Z,100542.31
2022-08-16T21:57:36.308Z,100537.34
2022-08-16T22:00:17.333Z,100536.41
2022-08-16T22:02:59.388Z,100541.66
2022-08-16T22:05:40.631Z,100538.59
2022-08-16T22:08:21.055Z,100548.22
2022-08-16T22:11:08.336Z,100545.16
2022-08-16T22:13:51.512Z,100552.06
2022-08-16T22:16:41.694Z,100555.59
2022-08-16T22:19:24.236Z,100549.75
2022-08-16T22:22:05.936Z,100556.19
2022-08-16T22:24:46.590Z,100552.06
2022-08-16T22:27:26.392Z,100550.03
2022-08-16T22:30:07.616Z,100555.28
2022-08-16T22:32:48.115Z,100553.25
2022-08-16T22:35:27.620Z,100552.88
2022-08-16T22:38:54.610Z,100554.56
2022-08-16T22:41:06.983Z,100549.63
2022-08-16T22:43:49.764Z,100553.47
2022-08-16T22:46:29.167Z,100547.44
2022-08-16T22:49:09.403Z,100549.94
2022-08-16T22:51:48.848Z,100549.31
2022-08-16T22:54:44.178Z,100561.38
2022-08-16T22:57:29.188Z,100560.19
2022-08-16T23:00:11.691Z,100560.03
2022-08-16T23:02:58.673Z,100558.59
2022-08-16T23:05:40.280Z,100558.00
2022-08-16T23:08:38.221Z,100555.13
2022-08-16T23:11:22.577Z,100558.06
2022-08-16T23:14:05.179Z,100560.16
2022-08-16T23:16:47.150Z,100553.09
2022-08-16T23:19:27.561Z,100555.19
2022-08-16T23:22:08.207Z,100558.34
2022-08-16T23:24:56.561Z,100552.34
2022-08-16T23:27:36.922Z,100549.91
2022-08-16T23:30:18.926Z,100554.69
2022-08-16T23:33:32.204Z,100546.59
2022-08-16T23:36:12.303Z,100542.47
2022-08-16T23:38:51.901Z,100539.19
2022-08-16T23:41:34.839Z,100537.75
2022-08-16T23:44:56.584Z,100536.31
2022-08-16T23:47:15.104Z,100535.31
2022-08-16T23:50:00.800Z,100531.38
2022-08-16T23:52:59.441Z,100532.41
2022-08-16T23:55:45.041Z,100538.06
2022-08-16T23:58:26.852Z,100535.81
